createdAt,value
2019-03-29T00:02:00.401Z,9.65
2019-03-29T00:04:32.699Z,9.49
2019-03-29T00:07:05.316Z,9.43
2019-03-29T00:09:37.700Z,9.17
2019-03-29T00:12:12.839Z,9.17
2019-03-29T00:14:45.349Z,9.10
2019-03-29T00:17:18.147Z,9.02
2019-03-29T00:19:50.606Z,9.02
2019-03-29T00:22:25.821Z,8.66
2019-03-29T00:24:58.301Z,8.66
2019-03-29T00:27:30.732Z,8.64
2019-03-29T00:30:03.302Z,8.64
2019-03-29T00:32:35.658Z,8.42
2019-03-29T00:35:09.603Z,8.42
2019-03-29T00:37:53.317Z,8.50
2019-03-29T00:40:18.042Z,8.43
2019-03-29T00:42:50.405Z,8.43
2019-03-29T00:45:22.774Z,8.55
2019-03-29T00:47:56.107Z,8.55
2019-03-29T00:50:28.690Z,8.49
2019-03-29T00:53:01.322Z,8.49
2019-03-29T00:55:33.868Z,8.83
2019-03-29T00:58:06.393Z,8.83
2019-03-29T01:00:38.780Z,9.26
2019-03-29T01:03:11.368Z,9.26
2019-03-29T01:05:43.806Z,9.36
2019-03-29T01:08:16.506Z,9.42
2019-03-29T01:10:50.481Z,9.49
2019-03-29T01:13:24.986Z,9.56
2019-03-29T01:15:57.551Z,9.62
2019-03-29T01:18:30.293Z,9.62
2019-03-29T01:21:02.829Z,9.68
2019-03-29T01:23:35.326Z,9.68
2019-03-29T01:26:07.694Z,9.67
2019-03-29T01:28:40.181Z,9.67
2019-03-29T01:31:12.634Z,9.59
2019-03-29T01:33:45.289Z,9.57
2019-03-29T01:36:17.758Z,9.32
2019-03-29T01:38:53.331Z,9.32
2019-03-29T01:41:27.018Z,9.11
2019-03-29T01:43:59.536Z,9.11
2019-03-29T01:46:33.386Z,9.04
2019-03-29T01:49:05.657Z,8.95
2019-03-29T01:51:38.301Z,8.95
2019-03-29T01:54:10.606Z,8.93
2019-03-29T01:56:43.294Z,8.93
2019-03-29T01:59:16.897Z,8.89
2019-03-29T02:01:49.424Z,8.89
2019-03-29T02:04:21.234Z,8.97
2019-03-29T02:06:53.473Z,8.99
2019-03-29T02:09:25.056Z,9.01
2019-03-29T02:12:00.501Z,9.10
2019-03-29T02:14:32.229Z,9.14
2019-03-29T02:17:04.557Z,9.10
2019-03-29T02:19:37.061Z,8.95
2019-03-29T02:22:12.577Z,8.89
2019-03-29T02:24:46.643Z,9.00
2019-03-29T02:27:19.293Z,8.92
2019-03-29T02:29:51.687Z,8.81
2019-03-29T02:32:25.135Z,8.81
2019-03-29T02:34:57.964Z,8.67
2019-03-29T02:38:04.230Z,8.54
2019-03-29T02:40:25.290Z,8.53
2019-03-29T02:42:58.293Z,8.49
2019-03-29T02:45:34.237Z,8.32
2019-03-29T02:48:05.423Z,8.32
2019-03-29T02:50:37.253Z,8.31
2019-03-29T02:53:09.648Z,8.32
2019-03-29T02:55:42.297Z,8.40
2019-03-29T02:58:16.296Z,8.42
2019-03-29T03:00:48.788Z,8.44
2019-03-29T03:03:21.375Z,8.44
2019-03-29T03:05:55.311Z,8.43
2019-03-29T03:08:27.266Z,8.43
2019-03-29T03:10:59.282Z,8.44
2019-03-29T03:13:31.482Z,8.40
2019-03-29T03:16:04.186Z,8.47
2019-03-29T03:18:36.554Z,8.48
2019-03-29T03:21:08.835Z,8.46
2019-03-29T03:23:44.318Z,8.27
2019-03-29T03:26:16.817Z,7.88
2019-03-29T03:28:49.489Z,7.88
2019-03-29T03:31:22.304Z,7.91
2019-03-29T03:33:54.917Z,7.66
2019-03-29T03:36:27.314Z,7.66
2019-03-29T03:38:59.755Z,7.52
2019-03-29T03:41:32.303Z,7.52
2019-03-29T03:44:07.612Z,7.45
2019-03-29T03:46:40.065Z,7.45
2019-03-29T03:49:12.404Z,7.35
2019-03-29T03:51:44.972Z,7.21
2019-03-29T03:54:18.340Z,7.21
2019-03-29T03:56:54.709Z,7.13
2019-03-29T03:59:32.042Z,7.13
2019-03-29T04:02:06.841Z,7.06
2019-03-29T04:04:39.297Z,6.95
2019-03-29T04:07:11.685Z,6.75
2019-03-29T04:09:49.765Z,6.75
2019-03-29T04:12:20.896Z,6.53
2019-03-29T04:14:53.292Z,6.53
2019-03-29T04:17:27.288Z,6.59
2019-03-29T04:19:59.569Z,6.48
2019-03-29T04:22:32.050Z,6.48
2019-03-29T04:25:06.823Z,6.46
2019-03-29T04:27:40.728Z,6.34
2019-03-29T04:42:25.783Z,5.97
2019-03-29T04:44:42.313Z,6.09
2019-03-29T04:47:16.375Z,5.99
2019-03-29T04:49:48.637Z,6.04
2019-03-29T04:52:21.336Z,6.04
2019-03-29T04:54:53.801Z,6.26
2019-03-29T04:57:30.330Z,6.26
2019-03-29T05:00:10.326Z,6.18
2019-03-29T05:02:45.508Z,6.15
2019-03-29T05:05:17.372Z,6.15
2019-03-29T05:07:51.325Z,6.41
2019-03-29T05:10:23.778Z,6.53
2019-03-29T05:12:59.389Z,6.53
2019-03-29T05:15:30.356Z,6.54
2019-03-29T05:18:05.792Z,6.78
2019-03-29T05:20:41.353Z,6.78
2019-03-29T05:23:13.664Z,6.59
2019-03-29T05:25:46.494Z,6.59
2019-03-29T05:28:27.343Z,6.54
2019-03-29T05:31:03.289Z,6.81
2019-03-29T05:33:36.719Z,6.48
2019-03-29T05:36:10.752Z,6.48
2019-03-29T05:38:45.398Z,6.47
2019-03-29T05:41:17.848Z,6.44
2019-03-29T05:43:54.496Z,6.33
2019-03-29T05:46:26.239Z,6.39
2019-03-29T05:48:58.459Z,6.47
2019-03-29T05:51:30.046Z,6.40
2019-03-29T05:54:02.465Z,6.41
2019-03-29T05:56:34.241Z,6.52
2019-03-29T05:59:08.551Z,6.47
2019-03-29T06:01:40.964Z,6.45
2019-03-29T06:04:13.367Z,6.49
2019-03-29T06:06:49.250Z,6.61
2019-03-29T06:09:21.313Z,6.61
2019-03-29T06:11:57.533Z,6.74
2019-03-29T06:14:33.018Z,6.74
2019-03-29T06:17:10.109Z,7.09
2019-03-29T06:19:45.401Z,7.34
2019-03-29T06:22:18.620Z,7.52
2019-03-29T06:25:27.162Z,7.72
2019-03-29T06:28:00.399Z,7.76
2019-03-29T06:30:35.697Z,7.98
2019-03-29T06:33:08.289Z,7.98
2019-03-29T06:35:43.259Z,8.06
2019-03-29T06:38:23.604Z,8.07
2019-03-29T06:41:02.759Z,8.07
2019-03-29T06:43:30.513Z,8.05
2019-03-29T06:46:06.313Z,8.39
2019-03-29T06:51:45.891Z,8.61
2019-03-29T07:00:54.353Z,9.10
2019-03-29T07:03:28.299Z,9.41
2019-03-29T07:06:00.768Z,9.33
2019-03-29T07:08:33.311Z,9.33
2019-03-29T07:11:16.660Z,9.69
2019-03-29T07:13:40.348Z,9.69
2019-03-29T07:16:12.799Z,9.99
2019-03-29T07:18:45.282Z,9.99
2019-03-29T07:21:21.731Z,10.37
2019-03-29T07:23:52.327Z,10.37
2019-03-29T07:26:24.745Z,10.30
2019-03-29T07:28:57.306Z,10.30
2019-03-29T07:31:29.703Z,10.88
2019-03-29T07:34:02.357Z,10.88
2019-03-29T07:36:34.841Z,10.85
2019-03-29T07:39:10.133Z,10.85
2019-03-29T07:41:42.557Z,11.01
2019-03-29T07:44:15.053Z,11.17
2019-03-29T07:46:47.448Z,11.12
2019-03-29T07:49:20.045Z,11.09
2019-03-29T07:51:52.454Z,11.37
2019-03-29T07:54:27.008Z,11.55
2019-03-29T07:56:59.344Z,11.46
2019-03-29T07:59:31.726Z,11.64
2019-03-29T08:02:04.291Z,11.64
2019-03-29T08:15:35.675Z,12.03
2019-03-29T09:46:48.597Z,15.22
2019-03-29T09:49:36.122Z,15.71
2019-03-29T09:55:47.082Z,15.38
2019-03-29T09:58:34.623Z,15.82
2019-03-29T10:01:40.881Z,15.82
2019-03-29T10:04:48.686Z,15.51
2019-03-29T10:07:45.804Z,15.83
2019-03-29T10:10:43.486Z,16.32
2019-03-29T10:13:58.420Z,16.57
2019-03-29T10:16:55.790Z,16.04
2019-03-29T10:19:39.805Z,16.63
2019-03-29T10:22:21.346Z,17.02
2019-03-29T10:24:56.426Z,17.01
2019-03-29T10:27:35.361Z,16.54
2019-03-29T10:30:19.166Z,16.99
2019-03-29T10:32:55.646Z,16.88
2019-03-29T10:35:50.724Z,16.69
2019-03-29T10:38:38.314Z,16.69
2019-03-29T10:41:07.485Z,17.09
2019-03-29T10:44:40.711Z,17.43
2019-03-29T10:48:35.859Z,17.14
2019-03-29T10:50:37.912Z,17.58
2019-03-29T10:53:08.871Z,17.84
2019-03-29T10:55:43.316Z,17.82
2019-03-29T10:58:16.333Z,17.72
2019-03-29T11:00:48.283Z,17.72
2019-03-29T11:06:47.328Z,18.10
2019-03-29T11:09:23.063Z,18.11
2019-03-29T11:11:57.335Z,18.11
2019-03-29T11:14:32.592Z,18.25
2019-03-29T11:17:04.834Z,18.49
2019-03-29T11:19:37.745Z,18.49
2019-03-29T11:22:10.766Z,18.86
2019-03-29T11:24:43.483Z,18.68
2019-03-29T11:27:16.341Z,18.69
2019-03-29T11:29:51.504Z,18.67
2019-03-29T11:32:24.305Z,18.67
2019-03-29T11:34:58.409Z,18.79
2019-03-29T11:37:30.081Z,19.11
2019-03-29T11:40:02.631Z,19.36
2019-03-29T11:42:37.072Z,19.22
2019-03-29T11:45:09.670Z,19.11
2019-03-29T11:47:42.331Z,19.74
2019-03-29T11:50:17.041Z,19.77
2019-03-29T11:52:49.465Z,19.77
2019-03-29T11:55:21.117Z,19.83
2019-03-29T11:57:55.842Z,19.40
2019-03-29T12:00:39.393Z,19.80
2019-03-29T12:03:12.427Z,20.47
2019-03-29T12:05:46.351Z,20.54
2019-03-29T12:08:18.310Z,20.54
2019-03-29T12:10:50.963Z,22.01
2019-03-29T12:13:23.673Z,22.01
2019-03-29T12:15:56.286Z,21.66
2019-03-29T12:18:28.840Z,23.03
2019-03-29T12:21:01.339Z,23.03
2019-03-29T12:23:34.066Z,24.11
2019-03-29T12:26:06.605Z,24.11
2019-03-29T12:28:39.294Z,24.29
2019-03-29T12:31:11.958Z,23.76
2019-03-29T12:33:47.385Z,23.76
2019-03-29T12:36:24.544Z,23.72
2019-03-29T12:38:57.449Z,25.59
2019-03-29T12:41:30.116Z,26.97
2019-03-29T12:44:04.590Z,27.78
2019-03-29T12:46:38.787Z,25.90
2019-03-29T12:49:12.456Z,27.60
2019-03-29T12:51:46.871Z,27.21
2019-03-29T12:54:19.632Z,29.32
2019-03-29T12:56:52.320Z,27.83
2019-03-29T12:59:25.327Z,28.01
2019-03-29T13:01:57.869Z,29.57
2019-03-29T13:04:30.752Z,29.57
2019-03-29T13:07:03.433Z,30.59
2019-03-29T13:09:35.422Z,31.11
2019-03-29T13:12:07.618Z,29.06
2019-03-29T13:14:40.318Z,29.86
2019-03-29T13:17:12.897Z,31.05
2019-03-29T13:19:45.356Z,31.05
2019-03-29T13:22:17.260Z,29.79
2019-03-29T13:24:50.042Z,29.64
2019-03-29T13:27:22.530Z,29.64
2019-03-29T13:29:55.350Z,28.60
2019-03-29T13:32:29.101Z,29.52
2019-03-29T13:35:02.066Z,27.84
2019-03-29T13:37:34.790Z,29.43
2019-03-29T13:40:12.305Z,29.51
2019-03-29T13:42:45.318Z,31.48
2019-03-29T13:45:17.254Z,31.92
2019-03-29T13:47:49.589Z,31.92
2019-03-29T13:50:22.280Z,31.95
2019-03-29T13:52:54.962Z,33.89
2019-03-29T13:55:28.143Z,33.89
2019-03-29T13:58:00.624Z,32.58
2019-03-29T14:00:33.290Z,33.89
2019-03-29T14:03:06.243Z,33.79
2019-03-29T14:05:38.507Z,33.79
2019-03-29T14:08:12.264Z,31.98
2019-03-29T14:10:44.687Z,31.20
2019-03-29T14:13:19.708Z,32.56
2019-03-29T14:15:51.614Z,30.47
2019-03-29T14:18:24.672Z,33.53
2019-03-29T14:20:58.878Z,32.37
2019-03-29T14:23:31.472Z,32.63
2019-03-29T14:26:04.284Z,33.16
2019-03-29T14:28:40.654Z,33.33
2019-03-29T14:31:16.046Z,33.33
2019-03-29T14:33:50.380Z,32.03
2019-03-29T14:36:22.882Z,31.49
2019-03-29T14:38:55.567Z,28.25
2019-03-29T14:41:30.361Z,30.74
2019-03-29T14:44:02.028Z,33.79
2019-03-29T14:46:34.415Z,33.79
2019-03-29T14:49:06.746Z,31.43
2019-03-29T14:51:40.669Z,31.47
2019-03-29T14:54:13.301Z,31.61
2019-03-29T14:56:45.638Z,31.10
2019-03-29T14:59:18.354Z,31.10
2019-03-29T15:01:51.470Z,30.12
2019-03-29T15:04:23.239Z,30.12
2019-03-29T15:06:55.614Z,33.53
2019-03-29T15:09:28.315Z,31.35
2019-03-29T15:12:00.821Z,34.23
2019-03-29T15:14:33.297Z,34.23
2019-03-29T15:17:05.864Z,32.37
2019-03-29T15:19:38.825Z,32.37
2019-03-29T15:22:11.313Z,29.33
2019-03-29T15:27:01.463Z,33.83
2019-03-29T15:29:33.083Z,31.56
2019-03-29T15:32:07.309Z,31.94
2019-03-29T15:34:40.495Z,33.45
2019-03-29T15:37:13.607Z,33.45
2019-03-29T15:39:46.412Z,32.88
2019-03-29T15:42:20.591Z,31.47
2019-03-29T15:44:53.432Z,31.62
2019-03-29T15:47:27.436Z,29.82
2019-03-29T15:49:59.426Z,29.23
2019-03-29T15:52:31.292Z,30.18
2019-03-29T15:55:04.420Z,29.53
2019-03-29T15:57:40.170Z,29.24
2019-03-29T16:00:15.307Z,27.39
2019-03-29T16:02:47.268Z,31.21
2019-03-29T16:05:20.064Z,31.21
2019-03-29T16:07:55.775Z,31.09
2019-03-29T16:10:28.555Z,31.79
2019-03-29T16:13:03.563Z,28.45
2019-03-29T16:15:38.315Z,29.07
2019-03-29T16:18:15.932Z,28.73
2019-03-29T16:20:53.348Z,28.73
2019-03-29T16:23:33.905Z,28.52
2019-03-29T16:26:06.501Z,30.09
2019-03-29T16:28:39.553Z,28.89
2019-03-29T16:31:12.292Z,27.39
2019-03-29T16:33:44.767Z,29.48
2019-03-29T16:36:17.310Z,28.42
2019-03-29T16:38:50.266Z,25.76
2019-03-29T16:41:22.621Z,24.02
2019-03-29T16:43:55.289Z,24.02
2019-03-29T16:46:27.764Z,23.23
2019-03-29T16:49:00.348Z,23.23
2019-03-29T16:51:33.744Z,20.90
2019-03-29T16:54:06.379Z,20.90
2019-03-29T16:56:38.056Z,21.17
2019-03-29T16:59:13.787Z,20.16
2019-03-29T17:01:46.321Z,19.78
2019-03-29T17:04:18.891Z,19.07
2019-03-29T17:06:51.373Z,19.07
2019-03-29T17:09:23.228Z,18.55
2019-03-29T17:11:55.713Z,18.54
2019-03-29T17:14:28.466Z,18.72
2019-03-29T17:17:00.457Z,18.26
2019-03-29T17:19:33.072Z,18.19
2019-03-29T17:22:05.562Z,18.19
2019-03-29T17:24:38.014Z,17.91
2019-03-29T17:27:12.318Z,17.58
2019-03-29T17:29:44.985Z,17.40
2019-03-29T17:32:17.343Z,17.40
2019-03-29T17:34:49.706Z,16.91
2019-03-29T17:37:22.342Z,16.91
2019-03-29T17:39:55.273Z,16.62
2019-03-29T17:42:28.060Z,16.48
2019-03-29T17:45:01.284Z,16.48
2019-03-29T17:47:33.643Z,15.94
2019-03-29T17:50:07.307Z,15.94
2019-03-29T17:52:41.634Z,15.95
2019-03-29T17:55:16.909Z,15.86
2019-03-29T17:57:48.374Z,15.64
2019-03-29T18:00:22.479Z,15.29
2019-03-29T18:02:54.238Z,15.29
2019-03-29T18:05:26.690Z,15.29
2019-03-29T18:07:59.183Z,15.17
2019-03-29T18:10:34.624Z,14.93
2019-03-29T18:13:07.279Z,14.93
2019-03-29T18:15:41.737Z,14.50
2019-03-29T18:18:14.296Z,14.50
2019-03-29T18:20:46.716Z,14.41
2019-03-29T18:23:19.365Z,14.41
2019-03-29T18:25:52.266Z,14.39
2019-03-29T18:38:39.579Z,13.95
2019-03-29T18:41:12.350Z,13.80
2019-03-29T18:43:44.771Z,13.51
2019-03-29T18:46:17.302Z,13.51
2019-03-29T18:48:49.978Z,13.36
2019-03-29T18:51:22.500Z,13.36
2019-03-29T18:53:54.251Z,13.32
2019-03-29T18:56:26.708Z,13.20
2019-03-29T18:58:59.301Z,13.08
2019-03-29T19:01:31.746Z,12.87
2019-03-29T19:04:04.355Z,12.87
2019-03-29T19:06:36.966Z,12.63
2019-03-29T19:09:09.413Z,12.63
2019-03-29T19:11:41.852Z,12.56
2019-03-29T19:14:14.417Z,12.52
2019-03-29T19:16:58.299Z,12.33
2019-03-29T19:19:20.346Z,12.24
2019-03-29T19:21:52.797Z,12.09
2019-03-29T19:24:25.303Z,12.09
2019-03-29T19:26:57.735Z,11.99
2019-03-29T19:29:30.362Z,11.99
2019-03-29T19:32:03.307Z,11.95
2019-03-29T19:34:35.756Z,11.71
2019-03-29T19:37:08.602Z,11.71
2019-03-29T19:39:41.303Z,11.57
2019-03-29T19:42:16.618Z,11.31
2019-03-29T19:44:47.280Z,11.31
2019-03-29T19:47:19.754Z,11.23
2019-03-29T19:49:55.229Z,11.11
2019-03-29T19:52:28.758Z,10.97
2019-03-29T19:55:02.707Z,10.88
2019-03-29T19:57:36.997Z,10.78
2019-03-29T20:00:15.653Z,10.68
2019-03-29T20:02:49.839Z,10.58
2019-03-29T20:05:30.321Z,10.48
2019-03-29T20:08:02.926Z,10.33
2019-03-29T20:10:35.567Z,10.33
2019-03-29T20:13:08.429Z,10.23
2019-03-29T20:15:41.309Z,10.13
2019-03-29T20:18:14.130Z,10.03
2019-03-29T20:20:46.658Z,10.03
2019-03-29T20:23:19.317Z,10.04
2019-03-29T20:25:53.386Z,9.98
2019-03-29T20:28:25.925Z,9.81
2019-03-29T20:30:58.341Z,9.81
2019-03-29T20:33:31.055Z,9.65
2019-03-29T20:36:03.750Z,9.65
2019-03-29T20:38:38.054Z,9.59
2019-03-29T20:41:10.542Z,9.52
2019-03-29T20:43:43.286Z,9.59
2019-03-29T20:46:15.112Z,9.47
2019-03-29T20:48:47.413Z,9.49
2019-03-29T20:51:19.427Z,9.39
2019-03-29T20:53:53.555Z,9.38
2019-03-29T20:56:28.751Z,9.17
2019-03-29T20:59:00.294Z,9.17
2019-03-29T21:01:33.080Z,8.93
2019-03-29T21:04:07.484Z,8.93
2019-03-29T21:06:39.066Z,9.03
2019-03-29T21:09:11.463Z,8.97
2019-03-29T21:11:43.840Z,8.98
2019-03-29T21:14:16.303Z,8.82
2019-03-29T21:16:51.556Z,8.82
2019-03-29T21:19:23.897Z,8.82
2019-03-29T21:21:56.332Z,8.75
2019-03-29T21:24:28.768Z,8.70
2019-03-29T21:27:01.315Z,8.70
2019-03-29T21:29:33.256Z,8.68
2019-03-29T21:32:11.573Z,8.70
2019-03-29T21:34:44.062Z,8.58
2019-03-29T21:37:16.627Z,8.55
2019-03-29T21:39:49.296Z,8.48
2019-03-29T21:42:21.029Z,8.39
2019-03-29T21:44:53.406Z,8.33
2019-03-29T21:47:30.529Z,8.33
2019-03-29T21:50:02.249Z,8.28
2019-03-29T21:52:34.633Z,8.22
2019-03-29T21:55:08.036Z,8.17
2019-03-29T21:57:41.374Z,8.12
2019-03-29T22:00:17.371Z,7.79
2019-03-29T22:02:49.979Z,7.79
2019-03-29T22:05:22.402Z,7.90
2019-03-29T22:07:54.902Z,7.70
2019-03-29T22:10:27.442Z,7.70
2019-03-29T22:12:59.304Z,7.75
2019-03-29T22:15:31.743Z,7.63
2019-03-29T22:18:06.843Z,7.57
2019-03-29T22:20:38.541Z,7.54
2019-03-29T22:23:11.228Z,7.53
2019-03-29T22:25:43.757Z,7.44
2019-03-29T22:28:16.316Z,7.35
2019-03-29T22:30:48.685Z,7.33
2019-03-29T22:33:21.300Z,7.33
2019-03-29T22:35:54.554Z,7.29
2019-03-29T22:38:27.050Z,7.19
2019-03-29T22:40:59.471Z,7.14
2019-03-29T22:43:31.123Z,7.15
2019-03-29T22:46:03.432Z,7.06
2019-03-29T22:48:51.346Z,7.07
2019-03-29T22:51:12.471Z,7.00
2019-03-29T22:53:44.882Z,6.96
2019-03-29T22:56:18.345Z,6.93
2019-03-29T22:58:51.729Z,6.93
2019-03-29T23:01:24.319Z,6.93
2019-03-29T23:03:56.817Z,6.75
2019-03-29T23:06:29.301Z,6.75
2019-03-29T23:09:01.778Z,6.77
2019-03-29T23:11:35.514Z,6.77
2019-03-29T23:14:07.276Z,6.72
2019-03-29T23:16:39.447Z,6.67
2019-03-29T23:19:11.264Z,6.65
2019-03-29T23:21:43.855Z,6.57
2019-03-29T23:24:21.031Z,6.58
2019-03-29T23:26:56.572Z,6.51
2019-03-29T23:29:30.749Z,6.45
2019-03-29T23:32:07.631Z,6.40
2019-03-29T23:34:41.804Z,6.40
2019-03-29T23:37:14.296Z,6.45
2019-03-29T23:39:53.414Z,6.43
2019-03-29T23:42:25.476Z,6.43
2019-03-29T23:45:02.559Z,6.34
2019-03-29T23:47:36.267Z,6.25
2019-03-29T23:50:10.828Z,6.21
2019-03-29T23:52:48.736Z,6.18
2019-03-29T23:55:24.077Z,6.13
2019-03-29T23:57:56.735Z,6.09
